Terminal Aerodrome Forecast
Issued by NWS Bismarck, ND

Home | Current Version | Previous Version | Graphics & Text | Print | Product List | Glossary On
Versions: 1 2 3 4 5 6 7 8 9 10 11 12 13 14 15 16 17
000
FTUS43 KBIS 232328
TAFBIS
TAF
KBIS 232328Z 2400/2424 05012G20KT P6SM SCT080
     FM240300 09005KT P6SM FEW200
     FM241200 14010KT P6SM FEW250
     FM241900 16018G29KT P6SM FEW200=

USA.gov is the U.S. government's official web portal to all federal, state and local government web resources and services.